Time;durP1;ratioP1;P1;durP2;ratioP2;P2;SDS_P1;SDS_P2;PMS_P1;PMS_P2;Temp;Humidity;BMP_temperature;BMP_pressure;BME280_temperature;BME280_humidity;BME280_pressure;Samples;Min_cycle;Max_cycle;Signal;HPM_P1;HPM_P2
2022/03/14 00:00:42;;;;;;;0.73;0.47;;;20.50;41.60;;;;;;5102561;28;20024;-47
2022/03/14 00:03:10;;;;;;;0.30;0.30;;;20.50;41.80;;;;;;5102839;28;20039;-47
2022/03/14 00:05:37;;;;;;;0.35;0.35;;;20.50;41.70;;;;;;5102447;28;20542;-46
2022/03/14 00:08:03;;;;;;;0.77;0.50;;;20.50;41.60;;;;;;5090748;28;20032;-46
2022/03/14 00:10:29;;;;;;;0.87;0.50;;;20.50;41.50;;;;;;5091193;28;20036;-46
2022/03/14 00:12:58;;;;;;;1.20;0.50;;;20.50;41.40;;;;;;5082625;28;20028;-46
2022/03/14 00:15:28;;;;;;;1.20;0.60;;;20.40;41.20;;;;;;5082201;28;20025;-46
2022/03/14 00:17:55;;;;;;;1.08;0.68;;;20.50;41.50;;;;;;5083498;28;20052;-46
2022/03/14 00:20:21;;;;;;;0.80;0.60;;;20.50;41.90;;;;;;5102773;28;20055;-48
2022/03/14 00:22:48;;;;;;;1.02;0.50;;;20.50;41.90;;;;;;5102702;28;20036;-46
2022/03/14 00:25:14;;;;;;;0.70;0.50;;;20.50;41.80;;;;;;5102346;28;20028;-46
2022/03/14 00:27:40;;;;;;;0.80;0.70;;;20.40;41.70;;;;;;5101669;28;20039;-46
2022/03/14 00:30:08;;;;;;;0.98;0.60;;;20.40;41.50;;;;;;5102693;28;20032;-48
2022/03/14 00:32:35;;;;;;;1.50;0.43;;;20.40;41.50;;;;;;5102419;28;20452;-48
2022/03/14 00:35:02;;;;;;;0.68;0.40;;;20.40;41.70;;;;;;5102496;28;20032;-47
2022/03/14 00:37:28;;;;;;;0.90;0.60;;;20.50;42.00;;;;;;5096001;28;20071;-46
2022/03/14 00:39:55;;;;;;;0.80;0.60;;;20.50;42.20;;;;;;5091060;28;20032;-47
2022/03/14 00:42:22;;;;;;;1.00;0.57;;;20.50;42.10;;;;;;5102705;28;20028;-47
2022/03/14 00:44:51;;;;;;;1.00;0.40;;;20.50;41.90;;;;;;5102341;28;20051;-47
2022/03/14 00:47:17;;;;;;;1.33;0.50;;;20.50;41.80;;;;;;5101918;28;20031;-46
2022/03/14 00:49:44;;;;;;;0.70;0.60;;;20.50;41.80;;;;;;5102315;28;20735;-47
2022/03/14 00:52:11;;;;;;;0.90;0.73;;;20.40;41.60;;;;;;5102302;28;20025;-47
2022/03/14 00:54:37;;;;;;;0.70;0.50;;;20.50;42.00;;;;;;5102634;28;20075;-46
2022/03/14 00:57:04;;;;;;;1.05;0.70;;;20.50;42.40;;;;;;5102146;28;20055;-46
2022/03/14 00:59:30;;;;;;;0.93;0.60;;;20.50;42.30;;;;;;5102463;28;20032;-46
2022/03/14 01:01:56;;;;;;;1.42;0.70;;;20.50;42.10;;;;;;5102136;28;20047;-46
2022/03/14 01:04:22;;;;;;;0.70;0.50;;;20.50;41.90;;;;;;5102314;28;20032;-45
2022/03/14 01:06:48;;;;;;;1.02;0.50;;;20.50;41.90;;;;;;5101499;28;20028;-46
2022/03/14 01:09:15;;;;;;;0.80;0.50;;;20.40;41.80;;;;;;5106116;28;20040;-45
2022/03/14 01:11:42;;;;;;;1.13;0.60;;;20.40;42.10;;;;;;5090752;28;20054;-46
2022/03/14 01:14:08;;;;;;;1.00;0.63;;;20.50;42.40;;;;;;5086027;28;20064;-47
2022/03/14 01:16:34;;;;;;;0.77;0.50;;;20.50;42.50;;;;;;5085214;28;20036;-47
2022/03/14 01:19:00;;;;;;;0.70;0.50;;;20.50;42.30;;;;;;5087929;28;20081;-46
2022/03/14 01:21:30;;;;;;;1.15;0.73;;;20.50;42.10;;;;;;5090729;28;20039;-46
2022/03/14 01:23:57;;;;;;;0.80;0.68;;;20.50;42.10;;;;;;5088659;28;20037;-46
2022/03/14 01:26:23;;;;;;;1.15;0.60;;;20.40;42.00;;;;;;5088955;28;20060;-45
2022/03/14 01:28:49;;;;;;;1.13;0.50;;;20.50;42.40;;;;;;5087398;28;20059;-46
2022/03/14 01:31:15;;;;;;;1.45;0.68;;;20.50;42.60;;;;;;5087813;28;20501;-46
2022/03/14 01:33:41;;;;;;;0.98;0.60;;;20.50;42.50;;;;;;5092656;28;20085;-49
2022/03/14 01:36:08;;;;;;;0.80;0.40;;;20.50;42.30;;;;;;5090348;28;20113;-46
2022/03/14 01:38:34;;;;;;;1.00;0.60;;;20.50;42.20;;;;;;5087410;28;20055;-46
2022/03/14 01:41:00;;;;;;;0.70;0.50;;;20.40;42.10;;;;;;5085905;28;20273;-47
2022/03/14 01:43:26;;;;;;;1.00;0.60;;;20.50;42.30;;;;;;5091246;28;20129;-47
2022/03/14 01:45:58;;;;;;;0.82;0.60;;;20.50;42.50;;;;;;5086512;28;20049;-45
2022/03/14 01:48:25;;;;;;;1.00;0.70;;;20.50;42.70;;;;;;5091372;28;20049;-47
2022/03/14 01:50:52;;;;;;;1.27;0.70;;;20.50;42.60;;;;;;5103286;28;20032;-48
2022/03/14 01:53:19;;;;;;;0.85;0.43;;;20.50;42.30;;;;;;5105361;28;20032;-47
2022/03/14 01:55:48;;;;;;;1.05;0.60;;;20.40;42.20;;;;;;5105407;28;20043;-46
2022/03/14 01:58:16;;;;;;;0.73;0.50;;;20.40;42.30;;;;;;5086947;28;20368;-47
2022/03/14 02:00:45;;;;;;;0.93;0.73;;;20.50;42.50;;;;;;5097016;28;20070;-46
2022/03/14 02:03:12;;;;;;;1.00;0.70;;;20.50;42.70;;;;;;5084740;28;20032;-48
2022/03/14 02:05:38;;;;;;;0.85;0.50;;;20.50;42.80;;;;;;5098614;28;20031;-46
2022/03/14 02:08:08;;;;;;;1.05;0.65;;;20.50;42.60;;;;;;5103751;28;20042;-47
2022/03/14 02:10:34;;;;;;;1.02;0.60;;;20.50;42.50;;;;;;5099254;28;20031;-46
2022/03/14 02:13:07;;;;;;;1.33;0.70;;;20.40;42.40;;;;;;5084482;28;20021;-47
2022/03/14 02:15:33;;;;;;;1.30;0.80;;;20.50;42.40;;;;;;5084683;28;20036;-46
2022/03/14 02:18:00;;;;;;;0.90;0.60;;;20.50;42.60;;;;;;5089129;28;20151;-47
2022/03/14 02:20:27;;;;;;;1.33;0.80;;;20.50;42.80;;;;;;5095753;28;20072;-47
2022/03/14 02:22:53;;;;;;;1.90;0.88;;;20.50;42.80;;;;;;5081680;28;20028;-47
2022/03/14 02:25:19;;;;;;;0.88;0.60;;;20.50;42.80;;;;;;5089161;28;20048;-46
2022/03/14 02:27:45;;;;;;;1.55;0.90;;;20.50;42.60;;;;;;5086803;28;20024;-46
2022/03/14 02:30:11;;;;;;;1.08;0.82;;;20.40;42.50;;;;;;5088697;28;20036;-47
2022/03/14 02:32:41;;;;;;;0.80;0.63;;;20.40;42.40;;;;;;5086819;28;20079;-47
2022/03/14 02:35:10;;;;;;;0.95;0.82;;;20.50;42.70;;;;;;5087705;28;20032;-44
2022/03/14 02:37:36;;;;;;;1.17;0.88;;;20.50;42.90;;;;;;5085525;28;20111;-51
2022/03/14 02:40:03;;;;;;;1.35;0.85;;;20.50;43.00;;;;;;5085116;28;20032;-47
2022/03/14 02:42:29;;;;;;;1.00;0.80;;;20.50;42.80;;;;;;5085833;28;20044;-47
2022/03/14 02:44:55;;;;;;;1.25;0.80;;;20.50;42.70;;;;;;5086308;28;20028;-47
2022/03/14 02:47:21;;;;;;;0.88;0.70;;;20.40;43.20;;;;;;5086546;28;20016;-46
2022/03/14 02:49:48;;;;;;;1.27;0.90;;;20.40;42.60;;;;;;5094899;28;20111;-46
2022/03/14 02:52:14;;;;;;;1.08;0.70;;;20.50;42.90;;;;;;5104261;28;20050;-47
2022/03/14 02:54:40;;;;;;;1.73;1.10;;;20.50;43.20;;;;;;5104291;28;20153;-49
2022/03/14 02:57:09;;;;;;;1.13;0.70;;;20.50;43.10;;;;;;5104072;28;20035;-47
2022/03/14 02:59:35;;;;;;;1.27;0.95;;;20.50;43.00;;;;;;5103652;28;20032;-47
2022/03/14 03:02:02;;;;;;;1.13;0.90;;;20.50;42.80;;;;;;5103838;28;20024;-47
2022/03/14 03:04:28;;;;;;;1.55;0.88;;;20.40;42.70;;;;;;5104198;28;20046;-46
2022/03/14 03:06:54;;;;;;;1.58;0.82;;;20.50;42.90;;;;;;5103029;28;20048;-46
2022/03/14 03:09:21;;;;;;;1.33;0.80;;;20.50;43.00;;;;;;5103234;28;20040;-46
2022/03/14 03:11:47;;;;;;;1.88;1.00;;;20.50;43.20;;;;;;5102041;28;20035;-47
2022/03/14 03:14:13;;;;;;;1.35;0.88;;;20.50;43.20;;;;;;5083830;28;20063;-48
2022/03/14 03:16:39;;;;;;;1.30;1.00;;;20.50;43.00;;;;;;5083237;28;20028;-47
2022/03/14 03:19:06;;;;;;;1.13;0.77;;;20.50;42.90;;;;;;5084181;28;20067;-47
2022/03/14 03:21:34;;;;;;;0.98;0.80;;;20.50;42.90;;;;;;5087492;28;20031;-48
2022/03/14 03:24:01;;;;;;;1.13;0.82;;;20.50;43.00;;;;;;5084002;28;20040;-49
2022/03/14 03:26:27;;;;;;;1.17;0.80;;;20.50;43.20;;;;;;5079880;28;20032;-46
2022/03/14 03:28:53;;;;;;;1.35;0.90;;;20.50;43.30;;;;;;5082226;28;20064;-46
2022/03/14 03:31:20;;;;;;;0.80;0.70;;;20.50;43.10;;;;;;5085136;28;20021;-47
2022/03/14 03:33:47;;;;;;;1.45;1.00;;;20.50;43.00;;;;;;5086591;28;20109;-49
2022/03/14 03:36:13;;;;;;;1.08;0.70;;;20.40;42.90;;;;;;5083383;28;20037;-45
2022/03/14 03:38:39;;;;;;;1.10;0.80;;;20.50;43.00;;;;;;5082350;28;20043;-46
2022/03/14 03:41:06;;;;;;;1.35;0.80;;;20.50;43.20;;;;;;5088281;28;20551;-46
2022/03/14 03:43:32;;;;;;;1.17;0.75;;;20.60;43.40;;;;;;5087879;28;20034;-47
2022/03/14 03:45:58;;;;;;;1.80;1.00;;;20.60;43.40;;;;;;5090370;28;20016;-49
2022/03/14 03:48:24;;;;;;;1.00;0.80;;;20.50;43.20;;;;;;5090475;28;20564;-46
2022/03/14 03:50:50;;;;;;;1.95;1.10;;;20.50;43.10;;;;;;5101052;28;20055;-50
2022/03/14 03:53:16;;;;;;;1.38;0.88;;;20.50;43.00;;;;;;5103287;28;20220;-48
2022/03/14 03:55:42;;;;;;;1.08;0.73;;;20.50;43.10;;;;;;5103289;28;20036;-48
2022/03/14 03:58:09;;;;;;;1.33;1.00;;;20.60;43.30;;;;;;5102927;28;20020;-46
2022/03/14 04:00:35;;;;;;;1.45;0.90;;;20.60;43.40;;;;;;5095708;28;20127;-46
2022/03/14 04:03:01;;;;;;;1.05;0.80;;;20.60;43.40;;;;;;5082418;28;20171;-46
2022/03/14 04:05:30;;;;;;;1.15;1.00;;;20.50;43.20;;;;;;5095051;28;20059;-46
2022/03/14 04:07:58;;;;;;;1.13;0.70;;;20.50;43.10;;;;;;5101737;28;20028;-46
2022/03/14 04:10:27;;;;;;;1.95;0.80;;;20.50;43.10;;;;;;5102418;28;20020;-47
2022/03/14 04:12:53;;;;;;;1.58;0.90;;;20.50;43.20;;;;;;5091998;28;20556;-46
2022/03/14 04:15:21;;;;;;;1.35;1.00;;;20.50;43.40;;;;;;5082458;28;20046;-47
2022/03/14 04:17:47;;;;;;;1.05;0.75;;;20.60;43.50;;;;;;5082212;28;20079;-47
2022/03/14 04:20:13;;;;;;;1.13;0.80;;;20.60;43.40;;;;;;5095015;28;20139;-46
2022/03/14 04:22:39;;;;;;;1.23;0.88;;;20.50;43.20;;;;;;5100151;28;20028;-47
2022/03/14 04:25:07;;;;;;;1.45;0.93;;;20.50;43.10;;;;;;5102672;28;20518;-46
2022/03/14 04:27:33;;;;;;;;;;;20.50;43.20;;;;;;5103133;28;20508;-46
2022/03/14 04:29:59;;;;;;;1.45;0.80;;;20.50;43.40;;;;;;5102439;28;20571;-47
2022/03/14 04:32:26;;;;;;;1.40;0.90;;;20.60;43.50;;;;;;5100890;28;20039;-47
2022/03/14 04:34:52;;;;;;;1.17;0.80;;;20.60;43.60;;;;;;5101488;28;20492;-47
2022/03/14 04:37:19;;;;;;;1.40;1.00;;;20.50;43.40;;;;;;5101469;28;20020;-48
2022/03/14 04:39:46;;;;;;;1.45;0.90;;;20.50;43.30;;;;;;5102430;28;20062;-46
2022/03/14 04:42:12;;;;;;;2.08;1.05;;;20.50;43.20;;;;;;5087088;28;20028;-47
2022/03/14 04:44:38;;;;;;;1.65;1.05;;;20.50;43.40;;;;;;5106385;28;20028;-46
2022/03/14 04:47:04;;;;;;;1.58;1.02;;;20.60;43.50;;;;;;5106328;28;20020;-47
2022/03/14 04:49:31;;;;;;;0.73;0.60;;;20.60;43.60;;;;;;5106502;28;20036;-47
2022/03/14 04:51:57;;;;;;;1.07;0.87;;;20.60;43.50;;;;;;5106312;28;20032;-47
2022/03/14 04:54:23;;;;;;;1.67;1.00;;;20.50;43.30;;;;;;5106144;28;20025;-47
2022/03/14 04:56:49;;;;;;;2.15;1.10;;;20.50;43.30;;;;;;5106162;28;20016;-47
2022/03/14 04:59:15;;;;;;;1.40;0.88;;;20.50;43.40;;;;;;5106346;28;20024;-46
2022/03/14 05:02:00;;;;;;;1.02;0.88;;;20.60;43.40;;;;;;5105815;28;20055;-46
2022/03/14 05:04:26;;;;;;;1.30;0.80;;;20.60;43.50;;;;;;5102784;28;20028;-46
2022/03/14 05:06:52;;;;;;;1.55;1.02;;;20.60;43.50;;;;;;5103877;28;20043;-46
2022/03/14 05:09:18;;;;;;;1.80;1.25;;;20.50;43.30;;;;;;5096701;28;20032;-48
2022/03/14 05:11:45;;;;;;;1.70;1.10;;;20.50;43.30;;;;;;5104292;28;20035;-48
2022/03/14 05:14:12;;;;;;;1.50;1.10;;;20.50;43.30;;;;;;5105970;28;20115;-47
2022/03/14 05:16:38;;;;;;;2.05;0.85;;;20.50;43.40;;;;;;5105327;28;20036;-52
2022/03/14 05:19:04;;;;;;;3.45;1.27;;;20.60;43.40;;;;;;5105446;28;20070;-54
2022/03/14 05:21:30;;;;;;;1.67;1.00;;;20.60;43.40;;;;;;5105177;28;20058;-53
2022/03/14 05:23:56;;;;;;;1.33;1.02;;;20.60;43.30;;;;;;5086775;28;20031;-53
2022/03/14 05:26:22;;;;;;;1.73;0.90;;;20.50;43.10;;;;;;5104887;28;20058;-53
2022/03/14 05:28:48;;;;;;;2.03;1.15;;;20.50;43.10;;;;;;5105231;28;20071;-47
2022/03/14 05:31:15;;;;;;;2.67;1.05;;;20.50;43.30;;;;;;5105457;28;20498;-50
2022/03/14 05:33:41;;;;;;;3.60;1.23;;;20.60;43.50;;;;;;5104934;28;20875;-47
2022/03/14 05:36:07;;;;;;;2.65;1.30;;;20.70;43.80;;;;;;5087570;28;20040;-46
2022/03/14 05:38:34;;;;;;;7.00;1.52;;;20.60;43.80;;;;;;5098826;28;20027;-47
2022/03/14 05:41:00;;;;;;;4.95;1.42;;;20.60;43.90;;;;;;5101373;28;20448;-46
2022/03/14 05:43:27;;;;;;;3.58;1.30;;;20.50;43.90;;;;;;5104597;28;20084;-46
2022/03/14 05:45:53;;;;;;;7.57;1.48;;;20.60;44.00;;;;;;5097252;28;20033;-47
2022/03/14 05:48:20;;;;;;;4.40;1.23;;;20.60;44.00;;;;;;5097594;28;20062;-46
2022/03/14 05:50:46;;;;;;;6.60;1.30;;;20.70;44.10;;;;;;5104577;28;20035;-46
2022/03/14 05:53:12;;;;;;;10.55;1.50;;;20.70;44.30;;;;;;5103299;28;20479;-49
2022/03/14 05:55:39;;;;;;;10.45;1.80;;;20.70;44.40;;;;;;5103675;28;20024;-50
2022/03/14 05:58:06;;;;;;;6.57;1.50;;;20.70;44.30;;;;;;5101417;28;20034;-43
2022/03/14 06:00:33;;;;;;;7.38;1.55;;;20.60;44.10;;;;;;5104738;28;20032;-44
2022/03/14 06:02:59;;;;;;;4.47;1.40;;;20.70;44.30;;;;;;5098511;28;20039;-45
2022/03/14 06:05:25;;;;;;;2.10;1.10;;;20.70;44.50;;;;;;5095988;28;20056;-44
2022/03/14 06:07:52;;;;;;;3.33;1.35;;;20.70;44.40;;;;;;5102703;28;20137;-45
2022/03/14 06:10:18;;;;;;;2.78;1.00;;;20.70;44.70;;;;;;5098673;28;20036;-45
2022/03/14 06:12:45;;;;;;;2.65;1.30;;;20.70;44.80;;;;;;5103912;28;20083;-45
2022/03/14 06:15:13;;;;;;;2.20;1.00;;;20.70;44.90;;;;;;5093875;28;20032;-44
2022/03/14 06:17:42;;;;;;;3.63;1.20;;;20.70;45.00;;;;;;5100717;28;20059;-44
2022/03/14 06:20:09;;;;;;;1.20;1.00;;;20.70;44.80;;;;;;5103922;28;20058;-45
2022/03/14 06:22:38;;;;;;;2.70;1.30;;;20.80;45.10;;;;;;5103799;28;20028;-45
2022/03/14 06:25:05;;;;;;;1.92;1.05;;;20.80;45.30;;;;;;5102268;28;20028;-43
2022/03/14 06:27:31;;;;;;;1.50;0.90;;;20.80;45.60;;;;;;5093196;28;20024;-44
2022/03/14 06:29:57;;;;;;;1.90;1.17;;;20.80;46.10;;;;;;5099345;28;20040;-46
2022/03/14 06:32:23;;;;;;;4.22;1.40;;;20.80;46.30;;;;;;5102693;28;20028;-45
2022/03/14 06:34:49;;;;;;;1.63;1.20;;;20.80;47.00;;;;;;5103242;28;20040;-45
2022/03/14 06:37:15;;;;;;;1.35;1.00;;;20.80;46.90;;;;;;5102443;28;20035;-45
2022/03/14 06:39:41;;;;;;;1.85;1.10;;;20.90;46.50;;;;;;5103269;28;20559;-44
2022/03/14 06:42:09;;;;;;;3.05;1.00;;;20.90;46.50;;;;;;5103148;28;20074;-45
2022/03/14 06:44:39;;;;;;;1.95;1.10;;;20.90;46.50;;;;;;5103919;28;20503;-44
2022/03/14 06:47:07;;;;;;;2.25;1.10;;;20.90;46.60;;;;;;5102984;28;20035;-44
2022/03/14 06:49:35;;;;;;;2.17;1.30;;;20.90;46.60;;;;;;5103193;28;20031;-45
2022/03/14 06:52:02;;;;;;;1.55;1.00;;;20.90;46.90;;;;;;5103482;28;20028;-45
2022/03/14 06:54:28;;;;;;;1.38;1.08;;;21.00;47.10;;;;;;5094695;28;20051;-46
2022/03/14 06:56:54;;;;;;;2.20;1.27;;;21.00;46.20;;;;;;5101668;28;20074;-46
2022/03/14 06:59:20;;;;;;;1.83;1.27;;;21.00;46.30;;;;;;5102788;28;20068;-45
2022/03/14 07:01:46;;;;;;;4.10;1.35;;;21.00;46.40;;;;;;5102981;28;20020;-45
2022/03/14 07:04:12;;;;;;;1.40;1.10;;;21.00;46.70;;;;;;5103237;28;20034;-44
2022/03/14 07:06:39;;;;;;;1.67;1.00;;;20.90;46.30;;;;;;5102677;28;20028;-45
2022/03/14 07:09:05;;;;;;;2.22;1.30;;;21.00;45.70;;;;;;5103224;28;20040;-44
2022/03/14 07:11:31;;;;;;;1.33;0.90;;;21.00;45.40;;;;;;5100760;28;20023;-45
2022/03/14 07:13:57;;;;;;;2.13;1.10;;;21.00;45.40;;;;;;5103145;28;20028;-45
2022/03/14 07:16:24;;;;;;;2.28;1.38;;;21.00;45.50;;;;;;5102178;28;20272;-45
2022/03/14 07:18:50;;;;;;;1.90;1.20;;;21.00;45.50;;;;;;5097032;28;20048;-45
2022/03/14 07:21:17;;;;;;;1.83;1.23;;;21.00;45.70;;;;;;5103112;28;20492;-46
2022/03/14 07:23:43;;;;;;;;;;;20.90;45.60;;;;;;5102748;28;20032;-46
2022/03/14 07:26:10;;;;;;;1.23;0.90;;;21.00;45.10;;;;;;5102448;28;20002;-46
2022/03/14 07:28:36;;;;;;;3.97;1.45;;;21.00;44.80;;;;;;5100909;28;20066;-45
2022/03/14 07:31:02;;;;;;;2.33;1.20;;;21.00;44.90;;;;;;5102739;28;20032;-47
2022/03/14 07:33:28;;;;;;;2.40;1.20;;;21.00;45.00;;;;;;5102146;28;20031;-45
2022/03/14 07:35:55;;;;;;;1.83;1.10;;;20.90;45.10;;;;;;5095795;28;20082;-45
2022/03/14 07:38:21;;;;;;;1.52;1.27;;;20.90;45.10;;;;;;5101014;28;20097;-46
2022/03/14 07:40:47;;;;;;;2.45;1.10;;;20.90;44.90;;;;;;5094785;28;20108;-45
2022/03/14 07:43:13;;;;;;;1.33;1.20;;;20.90;44.80;;;;;;5100139;28;20835;-45
2022/03/14 07:45:39;;;;;;;2.30;1.38;;;21.00;44.80;;;;;;5102383;28;20027;-47
2022/03/14 07:48:06;;;;;;;1.83;1.50;;;21.00;45.00;;;;;;5101648;28;20023;-46
2022/03/14 07:50:32;;;;;;;1.52;1.40;;;20.90;45.10;;;;;;5088466;28;20036;-45
2022/03/14 07:52:58;;;;;;;1.77;1.33;;;20.90;45.20;;;;;;5083991;28;20122;-46
2022/03/14 07:55:25;;;;;;;1.80;1.30;;;20.90;45.80;;;;;;5089962;28;20711;-45
2022/03/14 07:57:51;;;;;;;3.45;1.23;;;20.90;45.70;;;;;;5087288;28;20028;-46
2022/03/14 08:00:21;;;;;;;2.80;1.30;;;21.00;45.30;;;;;;5088592;28;20067;-46
2022/03/14 08:02:47;;;;;;;2.25;1.17;;;21.00;46.30;;;;;;5086439;28;20060;-46
2022/03/14 08:05:15;;;;;;;2.73;1.70;;;21.00;45.80;;;;;;5089014;28;20040;-46
2022/03/14 08:07:44;;;;;;;2.63;1.52;;;20.90;45.80;;;;;;5085955;28;20276;-47
2022/03/14 08:10:11;;;;;;;2.10;1.42;;;20.90;45.90;;;;;;5084475;28;20064;-46
2022/03/14 08:12:49;;;;;;;;;;;20.90;45.30;;;;;;5086941;28;20033;-49
2022/03/14 08:15:33;;;;;;;2.38;1.50;;;21.00;45.30;;;;;;5088274;28;19908;-46
2022/03/14 08:18:01;;;;;;;2.40;1.50;;;21.00;45.30;;;;;;5083324;28;20036;-45
2022/03/14 08:20:27;;;;;;;3.60;1.67;;;21.00;45.60;;;;;;5097746;28;20050;-45
2022/03/14 08:22:54;;;;;;;3.37;1.53;;;20.90;45.70;;;;;;5102031;28;20032;-46
2022/03/14 08:25:23;;;;;;;3.70;1.30;;;20.90;45.80;;;;;;5101863;28;20043;-45
2022/03/14 08:27:50;;;;;;;2.78;1.38;;;20.90;45.30;;;;;;5094720;28;20127;-46
2022/03/14 08:30:16;;;;;;;2.88;1.50;;;21.00;45.20;;;;;;5085037;28;20028;-45
2022/03/14 08:32:42;;;;;;;2.53;1.73;;;21.00;45.20;;;;;;5101362;28;20020;-46
2022/03/14 08:35:09;;;;;;;3.30;1.80;;;21.00;45.50;;;;;;5074213;28;20029;-46
2022/03/14 08:37:39;;;;;;;2.08;1.35;;;21.00;45.70;;;;;;5091224;28;20043;-46
2022/03/14 08:40:10;;;;;;;2.05;1.27;;;21.00;45.70;;;;;;5095157;28;20055;-46
2022/03/14 08:42:37;;;;;;;4.68;1.42;;;21.00;45.90;;;;;;5101674;28;20028;-46
2022/03/14 08:45:04;;;;;;;2.15;1.30;;;21.00;46.50;;;;;;5095924;28;20088;-44
2022/03/14 08:47:30;;;;;;;2.08;1.55;;;21.10;46.60;;;;;;5081156;28;20047;-46
2022/03/14 08:49:56;;;;;;;1.70;1.50;;;21.10;47.40;;;;;;5093211;28;20051;-45
2022/03/14 08:52:22;;;;;;;1.98;1.52;;;21.10;47.90;;;;;;5082585;28;20058;-46
2022/03/14 08:54:48;;;;;;;2.13;1.50;;;21.00;47.80;;;;;;5094318;28;20043;-46
2022/03/14 08:57:16;;;;;;;2.67;1.53;;;21.00;47.60;;;;;;5087809;28;20120;-46
2022/03/14 08:59:44;;;;;;;2.63;1.63;;;21.00;46.70;;;;;;5090676;28;20089;-46
2022/03/14 09:02:10;;;;;;;2.50;1.90;;;21.10;46.10;;;;;;5101203;28;20032;-46
2022/03/14 09:04:37;;;;;;;3.13;1.80;;;21.10;46.00;;;;;;5095073;28;20040;-46
2022/03/14 09:07:03;;;;;;;2.33;1.60;;;21.10;46.00;;;;;;5097861;28;20115;-45
2022/03/14 09:09:29;;;;;;;2.90;1.50;;;21.00;46.10;;;;;;5100323;28;20299;-46
2022/03/14 09:11:55;;;;;;;3.35;1.90;;;21.00;46.10;;;;;;5098800;28;20024;-45
2022/03/14 09:14:21;;;;;;;3.50;1.70;;;21.00;45.90;;;;;;5083243;28;20028;-47
2022/03/14 09:16:48;;;;;;;2.20;1.52;;;21.00;45.80;;;;;;5100762;28;20047;-47
2022/03/14 09:19:14;;;;;;;2.63;1.42;;;21.00;45.50;;;;;;5100432;28;20155;-45
2022/03/14 09:21:41;;;;;;;9.47;1.77;;;21.10;45.60;;;;;;5100583;28;20027;-45
2022/03/14 09:24:07;;;;;;;5.28;2.15;;;21.00;45.50;;;;;;5076983;28;20279;-46
2022/03/14 09:26:35;;;;;;;5.97;1.70;;;21.00;45.50;;;;;;5095678;28;20090;-46
2022/03/14 09:29:02;;;;;;;3.20;1.70;;;21.00;45.60;;;;;;5103084;28;20040;-46
2022/03/14 09:31:29;;;;;;;2.85;1.73;;;20.90;45.00;;;;;;5105291;28;20024;-45
2022/03/14 09:33:55;;;;;;;2.22;1.60;;;21.00;45.00;;;;;;5104601;28;20051;-46
2022/03/14 09:36:21;;;;;;;1.98;1.50;;;21.00;44.90;;;;;;5068354;28;20020;-46
2022/03/14 09:38:47;;;;;;;3.72;1.67;;;21.00;44.90;;;;;;5089322;28;20086;-47
2022/03/14 09:41:15;;;;;;;3.50;2.08;;;21.00;45.60;;;;;;5104281;28;20146;-46
2022/03/14 09:43:41;;;;;;;2.35;1.55;;;20.90;45.00;;;;;;5070056;28;20031;-46
2022/03/14 09:46:08;;;;;;;2.47;1.80;;;20.90;44.80;;;;;;5070315;28;20460;-46
2022/03/14 09:48:36;;;;;;;2.45;1.67;;;20.90;44.60;;;;;;5103767;28;20024;-46
2022/03/14 09:51:03;;;;;;;2.42;1.75;;;20.90;44.70;;;;;;5085239;28;20028;-46
2022/03/14 09:53:30;;;;;;;2.08;1.50;;;20.90;44.60;;;;;;5086560;28;20036;-47
2022/03/14 09:55:56;;;;;;;2.42;1.63;;;20.90;44.60;;;;;;5102445;28;20032;-45
2022/03/14 09:58:22;;;;;;;2.75;1.80;;;20.90;44.80;;;;;;5104389;28;20035;-46
2022/03/14 10:00:49;;;;;;;3.17;1.77;;;20.80;44.80;;;;;;5098755;28;20088;-46
2022/03/14 10:03:16;;;;;;;2.60;1.67;;;20.80;44.70;;;;;;5097183;28;20025;-46
2022/03/14 10:05:44;;;;;;;2.28;1.65;;;20.80;44.70;;;;;;5090491;28;20028;-47
2022/03/14 10:08:10;;;;;;;2.58;1.90;;;20.90;44.70;;;;;;5102644;28;20720;-47
2022/03/14 10:10:37;;;;;;;2.92;1.92;;;20.90;44.60;;;;;;5104124;28;20036;-47
2022/03/14 10:13:14;;;;;;;2.13;1.58;;;20.90;44.80;;;;;;5103970;28;20020;-47
2022/03/14 10:15:41;;;;;;;2.83;1.92;;;20.80;44.80;;;;;;5104815;28;20032;-46
2022/03/14 10:18:11;;;;;;;2.27;1.50;;;20.70;44.90;;;;;;5105878;28;20107;-47
2022/03/14 10:20:40;;;;;;;2.67;1.70;;;20.70;44.60;;;;;;5102322;28;20036;-47
2022/03/14 10:23:06;;;;;;;2.08;1.50;;;20.80;44.60;;;;;;5103421;28;20064;-46
2022/03/14 10:25:32;;;;;;;2.13;1.60;;;20.80;44.60;;;;;;5085241;28;20028;-46
2022/03/14 10:27:58;;;;;;;4.00;1.50;;;20.80;44.80;;;;;;5098921;28;20028;-54
2022/03/14 10:30:27;;;;;;;1.90;1.42;;;20.80;44.90;;;;;;5079278;28;20063;-56
2022/03/14 10:33:09;;;;;;;3.58;1.77;;;20.70;44.80;;;;;;5094644;28;20031;-51
2022/03/14 10:35:36;;;;;;;3.22;1.80;;;20.70;44.50;;;;;;5099212;28;20024;-56
2022/03/14 10:38:06;;;;;;;2.75;1.58;;;20.70;44.50;;;;;;5102067;28;20024;-56
2022/03/14 10:40:37;;;;;;;2.10;1.65;;;20.80;44.40;;;;;;5102502;28;20024;-55
2022/03/14 10:43:23;;;;;;;1.75;1.40;;;20.80;44.40;;;;;;5102577;28;20048;-57
2022/03/14 10:45:49;;;;;;;2.40;1.75;;;20.70;44.40;;;;;;5103179;28;20039;-59
2022/03/14 10:48:15;;;;;;;3.05;1.50;;;20.70;44.40;;;;;;5102750;28;20024;-56
2022/03/14 10:50:41;;;;;;;2.70;1.63;;;20.70;44.30;;;;;;5103008;28;20137;-50
2022/03/14 10:53:17;;;;;;;2.42;1.45;;;20.70;44.40;;;;;;5102800;28;20028;-55
2022/03/14 10:55:47;;;;;;;2.47;1.60;;;20.80;44.70;;;;;;5102806;28;20020;-51
2022/03/14 10:58:16;;;;;;;6.38;1.60;;;20.80;44.80;;;;;;5101782;28;20095;-50
2022/03/14 11:00:55;;;;;;;3.67;2.20;;;20.70;44.90;;;;;;5102769;28;20032;-53
2022/03/14 11:03:29;;;;;;;3.85;1.88;;;20.70;45.00;;;;;;5091125;28;20032;-47
2022/03/14 11:06:08;;;;;;;2.63;1.70;;;20.70;45.00;;;;;;5102542;28;20036;-48
2022/03/14 11:08:42;;;;;;;3.83;2.05;;;20.70;44.80;;;;;;5101604;28;20047;-44
2022/03/14 11:11:16;;;;;;;2.75;1.70;;;20.80;44.70;;;;;;5086017;28;20031;-44
2022/03/14 11:13:43;;;;;;;4.72;1.90;;;20.80;44.90;;;;;;5099620;28;20488;-45
2022/03/14 11:16:19;;;;;;;;;;;20.70;44.90;;;;;;5103334;28;20057;-45
2022/03/14 11:18:46;;;;;;;3.45;1.83;;;20.70;44.80;;;;;;5084199;28;20415;-44
2022/03/14 11:21:15;;;;;;;2.97;1.83;;;20.60;44.60;;;;;;5103495;28;20023;-44
2022/03/14 11:23:46;;;;;;;2.33;1.50;;;20.70;44.50;;;;;;5103228;28;20044;-46
2022/03/14 11:26:13;;;;;;;2.05;1.50;;;20.70;44.50;;;;;;5102639;28;20020;-46
2022/03/14 11:28:40;;;;;;;2.45;1.50;;;20.70;44.50;;;;;;5084451;28;20119;-45
2022/03/14 11:31:07;;;;;;;2.50;1.70;;;20.70;45.10;;;;;;5103400;28;20081;-46
2022/03/14 11:33:35;;;;;;;2.60;1.58;;;20.60;44.60;;;;;;5103140;28;20032;-45
2022/03/14 11:36:01;;;;;;;2.85;1.70;;;20.50;44.30;;;;;;5103021;28;20067;-46
2022/03/14 11:38:28;;;;;;;2.20;1.57;;;20.60;44.50;;;;;;5087650;28;20143;-46
2022/03/14 11:40:54;;;;;;;2.33;1.70;;;20.60;44.50;;;;;;5091043;28;20024;-45
2022/03/14 11:43:21;;;;;;;2.30;1.70;;;20.60;44.50;;;;;;5102787;28;20028;-45
2022/03/14 11:45:47;;;;;;;2.50;1.52;;;20.60;44.40;;;;;;5103300;28;20292;-45
2022/03/14 11:48:14;;;;;;;2.75;1.67;;;20.60;44.70;;;;;;5102678;28;20119;-46
2022/03/14 11:51:06;;;;;;;2.22;1.50;;;20.50;44.60;;;;;;5101783;28;20038;-50
2022/03/14 11:53:34;;;;;;;2.28;1.50;;;20.50;44.40;;;;;;5102526;28;20032;-46
2022/03/14 11:56:08;;;;;;;1.95;1.42;;;20.40;44.40;;;;;;5102807;28;20024;-46
2022/03/14 11:58:41;;;;;;;2.58;1.58;;;20.50;44.40;;;;;;5102679;28;20032;-45
2022/03/14 12:01:13;;;;;;;2.03;1.48;;;20.50;44.50;;;;;;5090546;28;20033;-45
2022/03/14 12:03:43;;;;;;;2.13;1.50;;;20.50;44.50;;;;;;5082019;28;20477;-43
2022/03/14 12:06:09;;;;;;;2.03;1.40;;;20.40;44.60;;;;;;5082430;28;20020;-45
2022/03/14 12:08:38;;;;;;;2.83;1.65;;;20.40;44.50;;;;;;5101014;28;20040;-45
2022/03/14 12:11:26;;;;;;;2.00;1.70;;;20.40;44.50;;;;;;5101995;28;20054;-46
2022/03/14 12:13:52;;;;;;;1.42;1.30;;;20.40;44.50;;;;;;5102609;28;20031;-46
2022/03/14 12:16:37;;;;;;;2.75;1.52;;;20.40;44.50;;;;;;5102598;28;20032;-46
2022/03/14 12:19:32;;;;;;;2.10;1.55;;;20.40;44.40;;;;;;5102045;28;20108;-44
2022/03/14 12:22:02;;;;;;;2.05;1.50;;;20.40;44.70;;;;;;5102620;28;20056;-45
2022/03/14 12:24:36;;;;;;;2.30;1.60;;;20.30;44.60;;;;;;5081022;28;20050;-46
2022/03/14 12:27:35;;;;;;;1.88;1.48;;;20.30;44.50;;;;;;5102440;28;20087;-45
2022/03/14 12:30:06;;;;;;;2.25;1.40;;;20.30;44.60;;;;;;5094896;28;20040;-45
2022/03/14 12:32:34;;;;;;;1.80;1.35;;;20.40;44.70;;;;;;5102171;28;20032;-45
2022/03/14 12:35:03;;;;;;;2.53;1.60;;;20.40;44.60;;;;;;5101650;28;20023;-45
2022/03/14 12:37:39;;;;;;;2.15;1.48;;;20.30;44.80;;;;;;5101259;28;20087;-45
2022/03/14 12:40:07;;;;;;;1.90;1.45;;;20.30;44.70;;;;;;5092609;28;20058;-46
2022/03/14 12:42:41;;;;;;;2.30;1.65;;;20.20;44.50;;;;;;5101851;28;20030;-45
2022/03/14 12:45:19;;;;;;;2.42;1.63;;;20.30;44.70;;;;;;5102188;28;20035;-45
2022/03/14 12:48:07;;;;;;;2.63;1.73;;;20.30;44.70;;;;;;5083945;28;20389;-45
2022/03/14 12:50:43;;;;;;;2.17;1.63;;;20.30;44.70;;;;;;5102025;28;20036;-45